Time,TemperatureF,DewpointF,PressureIn,WindDirection,WindDirectionDegrees,WindSpeedMPH,WindSpeedGustMPH,Humidity,HourlyPrecipIn,Conditions,Clouds,dailyrainin,SoftwareType,DateUTC
2013-05-28 00:01:00,53.3,51.0,29.90,SE,128,0.0,1.0,92,0.01,,-RA,0.00,VWS V14.01,2013-05-28 04:01:00,
2013-05-28 00:02:00,53.3,51.0,29.91,East,84,0.0,2.0,92,0.01,,-RA,0.00,VWS V14.01,2013-05-28 04:02:00,
2013-05-28 00:03:00,53.3,51.0,29.91,East,82,0.0,6.0,92,0.01,,-RA,0.00,VWS V14.01,2013-05-28 04:03:00,
2013-05-28 00:08:00,53.3,51.0,29.91,East,80,0.0,0.0,92,0.01,,-RA,0.00,VWS V14.01,2013-05-28 04:08:00,
2013-05-28 00:13:00,53.3,51.0,29.91,ESE,109,1.0,4.0,92,0.01,,-RA,0.00,VWS V14.01,2013-05-28 04:13:00,
2013-05-28 00:18:00,53.3,51.0,29.91,East,87,10.0,10.0,92,0.00,,-RA,0.00,VWS V14.01,2013-05-28 04:18:00,
2013-05-28 00:23:00,53.4,51.1,29.91,ENE,57,0.0,8.0,92,0.00,,-RA,0.00,VWS V14.01,2013-05-28 04:23:00,
2013-05-28 00:29:00,53.3,51.0,29.90,East,95,0.0,7.0,92,0.00,,-RA,0.00,VWS V14.01,2013-05-28 04:29:00,
2013-05-28 00:34:00,53.3,51.0,29.90,East,101,2.0,10.0,92,0.00,,-RA,0.00,VWS V14.01,2013-05-28 04:34:00,
2013-05-28 00:39:00,53.3,51.0,29.90,East,81,7.0,13.0,92,0.00,,-RA,0.00,VWS V14.01,2013-05-28 04:39:00,
2013-05-28 00:44:00,53.4,51.1,29.91,East,94,0.0,0.0,92,0.00,,-RA,0.00,VWS V14.01,2013-05-28 04:44:00,
2013-05-28 00:49:00,53.4,51.1,29.91,NE,43,3.0,5.0,92,0.00,,-RA,0.00,VWS V14.01,2013-05-28 04:49:00,
2013-05-28 00:54:00,53.4,51.1,29.90,ENE,74,5.0,6.0,92,0.00,,-RA,0.00,VWS V14.01,2013-05-28 04:54:00,
2013-05-28 00:59:00,53.5,51.2,29.90,ENE,75,0.0,0.0,92,0.00,,-RA,0.00,VWS V14.01,2013-05-28 04:59:00,
2013-05-28 01:04:00,53.5,51.2,29.90,ESE,103,2.0,8.0,92,0.00,,-RA,0.00,VWS V14.01,2013-05-28 05:04:00,
2013-05-28 01:09:00,53.5,51.2,29.90,NE,45,0.0,8.0,92,0.00,,-RA,0.00,VWS V14.01,2013-05-28 05:09:00,
2013-05-28 01:14:00,53.6,51.3,29.90,ENE,67,0.0,0.0,92,0.00,,,0.00,VWS V14.01,2013-05-28 05:14:00,
2013-05-28 01:19:00,53.6,51.3,29.90,East,97,8.0,8.0,92,0.00,,,0.00,VWS V14.01,2013-05-28 05:19:00,
2013-05-28 01:24:00,53.6,51.3,29.90,East,83,5.0,6.0,92,0.00,,,0.00,VWS V14.01,2013-05-28 05:24:00,
2013-05-28 01:29:00,53.7,51.4,29.90,East,90,3.0,3.0,92,0.00,,,0.00,VWS V14.01,2013-05-28 05:29:00,
2013-05-28 01:34:00,53.7,51.4,29.89,East,88,2.0,10.0,92,0.00,,,0.00,VWS V14.01,2013-05-28 05:34:00,
2013-05-28 01:39:00,53.7,51.4,29.89,East,87,0.0,0.0,92,0.00,,,0.00,VWS V14.01,2013-05-28 05:39:00,
2013-05-28 01:44:00,53.8,51.5,29.89,East,96,5.0,7.0,92,0.00,,,0.00,VWS V14.01,2013-05-28 05:44:00,
2013-05-28 01:50:00,53.8,51.5,29.87,ENE,69,3.0,7.0,92,0.00,,,0.00,VWS V14.01,2013-05-28 05:50:00,
2013-05-28 01:55:00,53.8,51.5,29.87,ENE,74,0.0,3.0,92,0.00,,,0.00,VWS V14.01,2013-05-28 05:55:00,
2013-05-28 02:00:00,53.7,51.4,29.87,East,84,0.0,3.0,92,0.00,,,0.00,VWS V14.01,2013-05-28 06:00:00,
2013-05-28 02:05:00,53.8,51.5,29.87,NE,56,0.0,7.0,92,0.00,,,0.00,VWS V14.01,2013-05-28 06:05:00,
2013-05-28 02:10:00,53.7,51.4,29.87,East,89,0.0,8.0,92,0.00,,,0.00,VWS V14.01,2013-05-28 06:10:00,
2013-05-28 02:15:00,53.7,51.4,29.87,NNE,32,2.0,2.0,92,0.00,,,0.00,VWS V14.01,2013-05-28 06:15:00,
2013-05-28 02:20:00,53.7,51.4,29.88,East,100,0.0,3.0,92,0.00,,,0.00,VWS V14.01,2013-05-28 06:20:00,
2013-05-28 02:25:00,53.7,51.4,29.88,East,79,3.0,6.0,92,0.00,,,0.00,VWS V14.01,2013-05-28 06:25:00,
2013-05-28 02:30:00,53.8,51.5,29.88,ENE,66,5.0,5.0,92,0.00,,,0.00,VWS V14.01,2013-05-28 06:30:00,
2013-05-28 02:35:00,53.8,51.5,29.88,ENE,60,0.0,3.0,92,0.00,,,0.00,VWS V14.01,2013-05-28 06:35:00,
2013-05-28 02:40:00,53.8,51.5,29.87,East,82,1.0,5.0,92,0.00,,,0.00,VWS V14.01,2013-05-28 06:40:00,
2013-05-28 02:45:00,53.8,51.5,29.87,East,88,0.0,0.0,92,0.00,,,0.00,VWS V14.01,2013-05-28 06:45:00,
2013-05-28 02:50:00,53.8,51.5,29.87,East,91,0.0,3.0,92,0.00,,,0.00,VWS V14.01,2013-05-28 06:50:00,
2013-05-28 02:55:00,53.9,51.6,29.88,East,89,0.0,1.0,92,0.00,,,0.00,VWS V14.01,2013-05-28 06:55:00,
2013-05-28 03:00:00,53.9,51.6,29.88,ENE,76,0.0,6.0,92,0.00,,,0.00,VWS V14.01,2013-05-28 07:00:00,
2013-05-28 03:05:00,53.9,51.6,29.86,ENE,76,0.0,0.0,92,0.00,,,0.00,VWS V14.01,2013-05-28 07:05:00,
2013-05-28 03:10:00,54.0,51.7,29.86,ENE,76,0.0,0.0,92,0.00,,,0.00,VWS V14.01,2013-05-28 07:10:00,
2013-05-28 03:15:00,54.0,51.7,29.87,East,96,8.0,8.0,92,0.00,,,0.00,VWS V14.01,2013-05-28 07:15:00,
2013-05-28 03:20:00,54.0,51.7,29.86,ENE,68,6.0,7.0,92,0.00,,,0.00,VWS V14.01,2013-05-28 07:20:00,
2013-05-28 03:25:00,54.0,51.7,29.86,SE,126,0.0,3.0,92,0.00,,,0.00,VWS V14.01,2013-05-28 07:25:00,
2013-05-28 03:30:00,54.0,51.7,29.86,East,91,0.0,5.0,92,0.00,,,0.00,VWS V14.01,2013-05-28 07:30:00,
2013-05-28 03:35:00,54.1,51.8,29.85,ENE,75,0.0,5.0,92,0.00,,,0.00,VWS V14.01,2013-05-28 07:35:00,
2013-05-28 03:40:00,54.1,51.8,29.85,East,80,6.0,6.0,92,0.00,,,0.00,VWS V14.01,2013-05-28 07:40:00,
2013-05-28 03:45:00,54.1,51.8,29.85,East,81,0.0,0.0,92,0.00,,,0.00,VWS V14.01,2013-05-28 07:45:00,
2013-05-28 03:50:00,54.1,51.8,29.85,East,95,0.0,6.0,92,0.00,,,0.00,VWS V14.01,2013-05-28 07:50:00,
2013-05-28 03:55:00,54.1,51.8,29.84,East,81,6.0,6.0,92,0.00,,,0.00,VWS V14.01,2013-05-28 07:55:00,
2013-05-28 04:00:00,54.1,51.8,29.84,East,79,7.0,8.0,92,0.00,,,0.00,VWS V14.01,2013-05-28 08:00:00,
2013-05-28 04:06:00,54.2,51.9,29.84,East,79,0.0,7.0,92,0.00,,,0.00,VWS V14.01,2013-05-28 08:06:00,
2013-05-28 04:11:00,54.2,51.9,29.85,East,96,1.0,5.0,92,0.00,,,0.00,VWS V14.01,2013-05-28 08:11:00,
2013-05-28 04:16:00,54.2,51.9,29.84,ENE,78,0.0,2.0,92,0.00,,,0.00,VWS V14.01,2013-05-28 08:16:00,
2013-05-28 04:21:00,54.2,51.9,29.84,ESE,114,5.0,9.0,92,0.00,,,0.00,VWS V14.01,2013-05-28 08:21:00,
2013-05-28 04:26:00,54.2,51.9,29.84,East,80,0.0,3.0,92,0.00,,,0.00,VWS V14.01,2013-05-28 08:26:00,
2013-05-28 04:31:00,54.2,52.2,29.84,ESE,103,0.0,2.0,93,0.00,,,0.00,VWS V14.01,2013-05-28 08:31:00,
2013-05-28 04:36:00,54.2,52.2,29.84,East,87,0.0,0.0,93,0.00,,,0.00,VWS V14.01,2013-05-28 08:36:00,
2013-05-28 04:41:00,54.2,52.2,29.84,ENE,74,3.0,10.0,93,0.00,,,0.00,VWS V14.01,2013-05-28 08:41:00,
2013-05-28 04:46:00,54.2,52.2,29.84,ENE,77,6.0,9.0,93,0.00,,,0.00,VWS V14.01,2013-05-28 08:46:00,
2013-05-28 04:51:00,54.2,52.2,29.84,ENE,73,0.0,2.0,93,0.00,,,0.00,VWS V14.01,2013-05-28 08:51:00,
2013-05-28 04:56:00,54.2,52.2,29.84,East,85,0.0,0.0,93,0.00,,,0.00,VWS V14.01,2013-05-28 08:56:00,
2013-05-28 05:01:00,54.2,52.2,29.84,ENE,72,5.0,5.0,93,0.00,,,0.00,VWS V14.01,2013-05-28 09:01:00,
2013-05-28 05:06:00,54.3,52.3,29.85,SE,128,0.0,0.0,93,0.00,,,0.00,VWS V14.01,2013-05-28 09:06:00,
2013-05-28 05:11:00,54.3,52.3,29.84,ENE,72,0.0,0.0,93,0.00,,,0.00,VWS V14.01,2013-05-28 09:11:00,
2013-05-28 05:16:00,54.3,52.3,29.84,East,84,5.0,7.0,93,0.00,,,0.00,VWS V14.01,2013-05-28 09:16:00,
2013-05-28 05:21:00,54.3,52.3,29.84,ESE,106,0.0,5.0,93,0.00,,,0.00,VWS V14.01,2013-05-28 09:21:00,
2013-05-28 05:26:00,54.4,52.4,29.84,ESE,115,0.0,0.0,93,0.00,,,0.00,VWS V14.01,2013-05-28 09:26:00,
2013-05-28 05:31:00,54.4,52.4,29.85,ENE,61,0.0,2.0,93,0.00,,,0.00,VWS V14.01,2013-05-28 09:31:00,
2013-05-28 05:36:00,54.4,52.4,29.84,ENE,58,0.0,0.0,93,0.00,,,0.00,VWS V14.01,2013-05-28 09:36:00,
2013-05-28 05:41:00,54.3,52.3,29.85,NE,56,0.0,3.0,93,0.00,,-RA,0.00,VWS V14.01,2013-05-28 09:41:00,
2013-05-28 05:46:00,54.4,52.4,29.85,East,88,0.0,0.0,93,0.01,,-RA,0.01,VWS V14.01,2013-05-28 09:46:00,
2013-05-28 05:51:00,54.4,52.4,29.85,East,91,0.0,7.0,93,0.02,,-RA,0.02,VWS V14.01,2013-05-28 09:51:00,
2013-05-28 05:56:00,54.4,52.4,29.85,East,87,0.0,0.0,93,0.04,,-RA,0.04,VWS V14.01,2013-05-28 09:56:00,
2013-05-28 06:01:00,54.5,52.5,29.85,East,89,0.0,0.0,93,0.06,,-RA,0.06,VWS V14.01,2013-05-28 10:01:00,
2013-05-28 06:06:00,54.5,52.5,29.85,ENE,72,0.0,5.0,93,0.08,,-RA,0.08,VWS V14.01,2013-05-28 10:06:00,
2013-05-28 06:11:00,54.5,52.5,29.84,East,82,0.0,0.0,93,0.10,,-RA,0.10,VWS V14.01,2013-05-28 10:11:00,
2013-05-28 06:16:00,54.6,52.6,29.83,East,96,8.0,11.0,93,0.11,,-RA,0.11,VWS V14.01,2013-05-28 10:16:00,
2013-05-28 06:22:00,54.6,52.6,29.83,East,99,5.0,7.0,93,0.12,,-RA,0.12,VWS V14.01,2013-05-28 10:22:00,
2013-05-28 06:27:00,54.6,52.6,29.83,East,91,0.0,3.0,93,0.13,,-RA,0.13,VWS V14.01,2013-05-28 10:27:00,
2013-05-28 06:32:00,54.7,52.7,29.83,East,91,0.0,7.0,93,0.14,,-RA,0.14,VWS V14.01,2013-05-28 10:32:00,
2013-05-28 06:37:00,54.7,52.7,29.83,East,97,5.0,5.0,93,0.14,,-RA,0.14,VWS V14.01,2013-05-28 10:37:00,
2013-05-28 06:42:00,54.7,53.0,29.83,East,86,0.0,8.0,94,0.14,,-RA,0.14,VWS V14.01,2013-05-28 10:42:00,
2013-05-28 06:47:00,54.7,53.0,29.83,East,86,0.0,7.0,94,0.16,,-RA,0.17,VWS V14.01,2013-05-28 10:47:00,
2013-05-28 06:52:00,54.8,53.1,29.84,East,87,0.0,6.0,94,0.17,,-RA,0.18,VWS V14.01,2013-05-28 10:52:00,
2013-05-28 06:57:00,54.8,53.1,29.84,ESE,102,0.0,0.0,94,0.17,,-RA,0.18,VWS V14.01,2013-05-28 10:57:00,
2013-05-28 07:02:00,54.9,53.2,29.84,East,101,0.0,0.0,94,0.12,,-RA,0.18,VWS V14.01,2013-05-28 11:02:00,
2013-05-28 07:07:00,54.9,53.2,29.85,East,91,0.0,0.0,94,0.14,,-RA,0.20,VWS V14.01,2013-05-28 11:07:00,
2013-05-28 07:12:00,55.0,53.3,29.85,East,80,0.0,0.0,94,0.16,,-RA,0.22,VWS V14.01,2013-05-28 11:12:00,
2013-05-28 07:17:00,55.0,53.3,29.83,ENE,59,0.0,0.0,94,0.13,,-RA,0.24,VWS V14.01,2013-05-28 11:17:00,
2013-05-28 07:22:00,55.0,53.3,29.84,NE,52,0.0,0.0,94,0.14,,-RA,0.25,VWS V14.01,2013-05-28 11:22:00,
2013-05-28 07:27:00,55.1,53.4,29.85,East,94,3.0,5.0,94,0.15,,-RA,0.26,VWS V14.01,2013-05-28 11:27:00,
2013-05-28 07:32:00,55.1,53.4,29.84,East,85,1.0,1.0,94,0.14,,-RA,0.27,VWS V14.01,2013-05-28 11:32:00,
2013-05-28 07:37:00,55.2,53.5,29.83,ENE,71,0.0,0.0,94,0.18,,-RA,0.31,VWS V14.01,2013-05-28 11:37:00,
2013-05-28 07:42:00,55.2,53.5,29.84,ESE,105,0.0,0.0,94,0.20,,-RA,0.33,VWS V14.01,2013-05-28 11:42:00,
2013-05-28 07:47:00,55.3,53.6,29.83,East,84,1.0,5.0,94,0.18,,-RA,0.34,VWS V14.01,2013-05-28 11:47:00,
2013-05-28 07:52:00,55.4,53.7,29.83,East,92,2.0,8.0,94,0.24,,-RA,0.40,VWS V14.01,2013-05-28 11:52:00,
2013-05-28 07:57:00,55.5,53.8,29.84,ENE,67,0.0,0.0,94,0.38,,-RA,0.54,VWS V14.01,2013-05-28 11:57:00,
2013-05-28 08:02:00,55.6,53.9,29.83,ENE,68,1.0,5.0,94,0.44,,,0.62,VWS V14.01,2013-05-28 12:02:00,
2013-05-28 08:07:00,55.7,54.0,29.83,ESE,105,5.0,7.0,94,0.45,,,0.63,VWS V14.01,2013-05-28 12:07:00,
2013-05-28 08:12:00,55.8,54.1,29.83,ESE,108,0.0,0.0,94,0.45,,,0.63,VWS V14.01,2013-05-28 12:12:00,
2013-05-28 08:17:00,55.9,54.2,29.82,NE,55,0.0,5.0,94,0.40,,,0.64,VWS V14.01,2013-05-28 12:17:00,
2013-05-28 08:23:00,56.1,54.4,29.82,ESE,103,0.0,0.0,94,0.40,,,0.64,VWS V14.01,2013-05-28 12:23:00,
2013-05-28 08:28:00,56.2,54.5,29.82,East,83,0.0,0.0,94,0.40,,,0.64,VWS V14.01,2013-05-28 12:28:00,
2013-05-28 08:33:00,56.4,54.7,29.81,East,81,0.0,0.0,94,0.38,,,0.64,VWS V14.01,2013-05-28 12:33:00,
2013-05-28 08:38:00,56.5,54.8,29.81,East,80,0.0,0.0,94,0.38,,,0.64,VWS V14.01,2013-05-28 12:38:00,
2013-05-28 08:43:00,56.6,54.9,29.81,East,91,0.0,0.0,94,0.38,,,0.64,VWS V14.01,2013-05-28 12:43:00,
2013-05-28 08:48:00,56.7,55.0,29.80,East,94,0.0,0.0,94,0.30,,,0.64,VWS V14.01,2013-05-28 12:48:00,
2013-05-28 08:53:00,56.8,55.1,29.80,ESE,107,0.0,0.0,94,0.31,,,0.65,VWS V14.01,2013-05-28 12:53:00,
2013-05-28 08:58:00,56.9,55.2,29.80,East,93,0.0,0.0,94,0.31,,,0.65,VWS V14.01,2013-05-28 12:58:00,
2013-05-28 09:03:00,57.1,55.4,29.80,ENE,68,0.0,0.0,94,0.04,,,0.65,VWS V14.01,2013-05-28 13:03:00,
2013-05-28 09:08:00,57.2,55.5,29.80,East,80,0.0,0.0,94,0.04,,,0.65,VWS V14.01,2013-05-28 13:08:00,
2013-05-28 09:13:00,57.4,55.7,29.80,ESE,120,4.0,7.0,94,0.04,,,0.65,VWS V14.01,2013-05-28 13:13:00,
2013-05-28 09:18:00,57.7,56.3,29.80,ESE,120,0.0,7.0,95,0.01,,,0.65,VWS V14.01,2013-05-28 13:18:00,
2013-05-28 09:23:00,57.8,56.1,29.79,East,81,0.0,4.0,94,0.04,,,0.68,VWS V14.01,2013-05-28 13:23:00,
2013-05-28 09:28:00,58.0,56.3,29.80,SE,124,0.0,0.0,94,0.04,,,0.68,VWS V14.01,2013-05-28 13:28:00,
2013-05-28 09:33:00,58.0,56.3,29.80,SE,125,0.0,0.0,94,0.04,,,0.68,VWS V14.01,2013-05-28 13:33:00,
2013-05-28 09:38:00,58.2,56.8,29.79,East,91,0.0,4.0,95,0.04,,,0.68,VWS V14.01,2013-05-28 13:38:00,
2013-05-28 09:43:00,58.3,56.9,29.80,East,86,0.0,0.0,95,0.04,,,0.68,VWS V14.01,2013-05-28 13:43:00,
2013-05-28 09:48:00,58.4,57.0,29.79,East,88,0.0,0.0,95,0.05,,,0.69,VWS V14.01,2013-05-28 13:48:00,
2013-05-28 09:53:00,58.5,57.1,29.79,East,88,0.0,0.0,95,0.05,,,0.69,VWS V14.01,2013-05-28 13:53:00,
2013-05-28 09:58:00,58.7,57.3,29.79,East,79,3.0,6.0,95,0.05,,,0.69,VWS V14.01,2013-05-28 13:58:00,
2013-05-28 10:03:00,58.8,57.4,29.79,East,89,0.0,0.0,95,0.04,,-RA,0.69,VWS V14.01,2013-05-28 14:03:00,
2013-05-28 10:08:00,58.9,57.5,29.79,East,89,0.0,0.0,95,0.04,,-RA,0.69,VWS V14.01,2013-05-28 14:08:00,
2013-05-28 10:13:00,59.0,57.6,29.79,East,81,0.0,0.0,95,0.04,,-RA,0.69,VWS V14.01,2013-05-28 14:13:00,
2013-05-28 10:18:00,59.1,57.7,29.79,ENE,76,2.0,5.0,95,0.04,,-RA,0.69,VWS V14.01,2013-05-28 14:18:00,
2013-05-28 10:23:00,59.2,57.8,29.79,ENE,76,0.0,0.0,95,0.04,,-RA,0.69,VWS V14.01,2013-05-28 14:23:00,
2013-05-28 10:28:00,59.3,57.9,29.79,ENE,76,1.0,1.0,95,0.04,,-RA,0.69,VWS V14.01,2013-05-28 14:28:00,
2013-05-28 10:33:00,59.5,58.1,29.79,SE,127,0.0,0.0,95,0.01,,-RA,0.69,VWS V14.01,2013-05-28 14:33:00,
2013-05-28 10:38:00,59.6,58.2,29.78,ESE,112,0.0,0.0,95,0.01,,-RA,0.69,VWS V14.01,2013-05-28 14:38:00,
2013-05-28 10:44:00,59.8,58.4,29.78,East,81,0.0,0.0,95,0.01,,-RA,0.69,VWS V14.01,2013-05-28 14:44:00,
2013-05-28 10:49:00,60.0,58.6,29.78,East,81,0.0,0.0,95,0.00,,-RA,0.69,VWS V14.01,2013-05-28 14:49:00,
2013-05-28 10:54:00,60.2,58.8,29.77,ESE,102,0.0,0.0,95,0.00,,-RA,0.69,VWS V14.01,2013-05-28 14:54:00,
2013-05-28 10:59:00,60.4,59.0,29.76,ENE,78,0.0,6.0,95,0.00,,-RA,0.69,VWS V14.01,2013-05-28 14:59:00,
2013-05-28 11:04:00,60.7,59.3,29.75,East,89,4.0,8.0,95,0.00,,-RA,0.69,VWS V14.01,2013-05-28 15:04:00,
2013-05-28 11:09:00,61.4,60.0,29.76,East,81,0.0,0.0,95,0.00,,-RA,0.69,VWS V14.01,2013-05-28 15:09:00,
2013-05-28 11:14:00,61.9,60.5,29.76,ESE,120,6.0,7.0,95,0.00,,-RA,0.69,VWS V14.01,2013-05-28 15:14:00,
2013-05-28 11:19:00,62.1,60.7,29.76,SSE,160,0.0,5.0,95,0.00,,-RA,0.69,VWS V14.01,2013-05-28 15:19:00,
2013-05-28 11:24:00,62.1,60.7,29.76,SSE,164,5.0,5.0,95,0.00,,-RA,0.69,VWS V14.01,2013-05-28 15:24:00,
2013-05-28 11:29:00,62.1,60.7,29.76,SSE,161,0.0,4.0,95,0.02,,-RA,0.71,VWS V14.01,2013-05-28 15:29:00,
2013-05-28 11:34:00,62.1,60.7,29.78,SSE,161,0.0,0.0,95,0.03,,-RA,0.72,VWS V14.01,2013-05-28 15:34:00,
2013-05-28 11:39:00,62.2,60.8,29.79,SSE,161,0.0,0.0,95,0.06,,-RA,0.75,VWS V14.01,2013-05-28 15:39:00,
2013-05-28 11:44:00,62.3,60.8,29.77,SSE,161,0.0,0.0,95,0.13,,-RA,0.82,VWS V14.01,2013-05-28 15:44:00,
2013-05-28 11:49:00,62.4,61.0,29.78,SSE,161,0.0,0.0,95,0.14,,-RA,0.83,VWS V14.01,2013-05-28 15:49:00,
2013-05-28 11:54:00,62.4,61.0,29.78,SSE,161,0.0,0.0,95,0.15,,-RA,0.84,VWS V14.01,2013-05-28 15:54:00,
2013-05-28 11:59:00,62.5,61.0,29.78,SSE,161,0.0,0.0,95,0.16,,-RA,0.85,VWS V14.01,2013-05-28 15:59:00,
2013-05-28 12:04:00,62.7,61.2,29.78,SSE,161,0.0,0.0,95,0.16,,-RA,0.85,VWS V14.01,2013-05-28 16:04:00,
2013-05-28 12:09:00,63.0,61.5,29.77,SSE,161,0.0,0.0,95,0.16,,-RA,0.85,VWS V14.01,2013-05-28 16:09:00,
2013-05-28 12:14:00,63.9,62.4,29.76,SSE,161,0.0,0.0,95,0.16,,,0.85,VWS V14.01,2013-05-28 16:14:00,
2013-05-28 12:19:00,66.4,65.2,29.76,SSE,161,0.0,0.0,96,0.16,,,0.85,VWS V14.01,2013-05-28 16:19:00,
2013-05-28 12:24:00,67.7,66.5,29.77,SSE,161,0.0,0.0,96,0.16,,,0.85,VWS V14.01,2013-05-28 16:24:00,
2013-05-28 12:29:00,69.1,67.9,29.77,SSE,161,0.0,0.0,96,0.16,,,0.85,VWS V14.01,2013-05-28 16:29:00,
2013-05-28 12:35:00,69.3,68.1,29.77,SSW,203,0.0,0.0,96,0.14,,,0.85,VWS V14.01,2013-05-28 16:35:00,
2013-05-28 12:40:00,69.3,68.1,29.77,SSW,209,6.0,7.0,96,0.14,,,0.85,VWS V14.01,2013-05-28 16:40:00,
2013-05-28 12:45:00,69.1,67.9,29.77,SSW,211,2.0,3.0,96,0.14,,OVC085,0.85,VWS V14.01,2013-05-28 16:45:00,
2013-05-28 12:50:00,69.2,68.0,29.77,SSW,199,0.0,5.0,96,0.02,,OVC085,0.85,VWS V14.01,2013-05-28 16:50:00,
2013-05-28 12:55:00,69.5,68.3,29.77,SSW,193,0.0,0.0,96,0.02,,OVC085,0.85,VWS V14.01,2013-05-28 16:55:00,
2013-05-28 13:00:00,69.6,68.4,29.77,SSW,193,0.0,0.0,96,0.02,,OVC085,0.85,VWS V14.01,2013-05-28 17:00:00,
2013-05-28 13:05:00,69.6,68.4,29.77,SSW,193,0.0,0.0,96,0.00,,OVC085,0.85,VWS V14.01,2013-05-28 17:05:00,
2013-05-28 13:10:00,69.6,68.4,29.77,SSW,193,0.0,0.0,96,0.00,,OVC085,0.85,VWS V14.01,2013-05-28 17:10:00,
2013-05-28 13:15:00,69.5,68.3,29.77,SSW,193,0.0,0.0,96,0.00,,OVC035,0.85,VWS V14.01,2013-05-28 17:15:00,
2013-05-28 13:20:00,69.8,68.6,29.77,South,189,7.0,7.0,96,0.00,,OVC035,0.85,VWS V14.01,2013-05-28 17:20:00,
2013-05-28 13:25:00,69.9,68.7,29.77,SW,221,0.0,6.0,96,0.00,,OVC035,0.85,VWS V14.01,2013-05-28 17:25:00,
2013-05-28 13:30:00,69.8,68.6,29.77,SSW,209,5.0,10.0,96,0.00,,OVC035,0.85,VWS V14.01,2013-05-28 17:30:00,
2013-05-28 13:35:00,69.9,68.4,29.77,South,170,4.0,7.0,95,0.00,,OVC035,0.85,VWS V14.01,2013-05-28 17:35:00,
2013-05-28 13:40:00,70.6,69.4,29.77,SSW,211,4.0,15.0,96,0.00,,OVC035,0.85,VWS V14.01,2013-05-28 17:40:00,
2013-05-28 13:45:00,70.3,68.8,29.77,SSW,202,7.0,11.0,95,0.00,,OVC035,0.85,VWS V14.01,2013-05-28 17:45:00,
2013-05-28 13:50:00,70.4,68.9,29.77,SSW,195,0.0,0.0,95,0.00,,OVC035,0.85,VWS V14.01,2013-05-28 17:50:00,
2013-05-28 13:55:00,70.9,69.4,29.77,SSW,204,6.0,10.0,95,0.00,,OVC035,0.85,VWS V14.01,2013-05-28 17:55:00,
2013-05-28 14:00:00,71.3,69.8,29.77,SSE,168,4.0,15.0,95,0.00,,OVC035,0.85,VWS V14.01,2013-05-28 18:00:00,
2013-05-28 14:05:00,71.5,69.4,29.77,SSW,213,0.0,6.0,93,0.00,,OVC035,0.85,VWS V14.01,2013-05-28 18:05:00,
2013-05-28 14:10:00,71.6,69.2,29.77,WSW,238,7.0,12.0,92,0.00,,OVC035,0.85,VWS V14.01,2013-05-28 18:10:00,
2013-05-28 14:15:00,71.5,68.4,29.77,SSW,213,9.0,20.0,90,0.00,,BKN065,0.85,VWS V14.01,2013-05-28 18:15:00,
2013-05-28 14:20:00,71.5,67.8,29.77,SSW,199,6.0,9.0,88,0.00,,BKN065,0.85,VWS V14.01,2013-05-28 18:20:00,
2013-05-28 14:25:00,71.5,67.1,29.77,SSE,158,4.0,13.0,86,0.00,,BKN065,0.85,VWS V14.01,2013-05-28 18:25:00,
2013-05-28 14:30:00,71.5,66.8,29.76,South,179,1.0,10.0,85,0.00,,BKN065,0.85,VWS V14.01,2013-05-28 18:30:00,
2013-05-28 14:36:00,71.7,66.9,29.76,SSW,206,0.0,3.0,85,0.00,,BKN065,0.85,VWS V14.01,2013-05-28 18:36:00,
2013-05-28 14:41:00,71.8,67.1,29.77,WSW,238,5.0,8.0,85,0.00,,BKN065,0.85,VWS V14.01,2013-05-28 18:41:00,
2013-05-28 14:46:00,72.0,67.2,29.77,SSW,199,0.0,0.0,85,0.00,,BKN065,0.85,VWS V14.01,2013-05-28 18:46:00,
2013-05-28 14:51:00,72.1,67.0,29.76,SSW,210,2.0,7.0,84,0.00,,BKN065,0.85,VWS V14.01,2013-05-28 18:51:00,
2013-05-28 14:56:00,72.3,66.8,29.77,SW,228,0.0,6.0,83,0.00,,BKN065,0.85,VWS V14.01,2013-05-28 18:56:00,
2013-05-28 15:01:00,72.5,67.4,29.77,SW,225,3.0,8.0,84,0.00,,BKN065,0.85,VWS V14.01,2013-05-28 19:01:00,
2013-05-28 15:06:00,72.7,67.2,29.77,SSW,211,2.0,11.0,83,0.00,,OVC065,0.85,VWS V14.01,2013-05-28 19:06:00,
2013-05-28 15:11:00,72.9,67.4,29.77,SSW,207,5.0,7.0,83,0.00,,OVC065,0.85,VWS V14.01,2013-05-28 19:11:00,
2013-05-28 15:16:00,73.1,67.6,29.77,SSW,193,4.0,9.0,83,0.00,,OVC065,0.85,VWS V14.01,2013-05-28 19:16:00,
2013-05-28 15:21:00,73.6,68.1,29.76,South,187,0.0,3.0,83,0.00,,OVC065,0.85,VWS V14.01,2013-05-28 19:21:00,
2013-05-28 15:26:00,74.8,68.9,29.76,South,183,11.0,12.0,82,0.00,,OVC065,0.85,VWS V14.01,2013-05-28 19:26:00,
2013-05-28 15:31:00,75.3,68.3,29.76,SW,221,9.0,9.0,79,0.00,,OVC065,0.85,VWS V14.01,2013-05-28 19:31:00,
2013-05-28 15:36:00,75.3,67.6,29.76,SSW,201,5.0,7.0,77,0.00,,OVC065,0.85,VWS V14.01,2013-05-28 19:36:00,
2013-05-28 15:41:00,75.5,67.8,29.75,SW,230,0.0,10.0,77,0.00,,OVC065,0.85,VWS V14.01,2013-05-28 19:41:00,
2013-05-28 15:46:00,75.6,67.5,29.75,SSW,207,5.0,10.0,76,0.00,,OVC065,0.85,VWS V14.01,2013-05-28 19:46:00,
2013-05-28 15:51:00,75.6,67.1,29.75,South,184,0.0,2.0,75,0.00,,OVC065,0.85,VWS V14.01,2013-05-28 19:51:00,
2013-05-28 15:56:00,75.7,66.8,29.75,SSW,202,6.0,7.0,74,0.00,,OVC065,0.85,VWS V14.01,2013-05-28 19:56:00,
2013-05-28 16:01:00,75.7,67.2,29.75,SSW,209,1.0,10.0,75,0.00,,OVC240,0.85,VWS V14.01,2013-05-28 20:01:00,
2013-05-28 16:06:00,75.8,67.3,29.75,SSW,207,2.0,8.0,75,0.00,,OVC240,0.85,VWS V14.01,2013-05-28 20:06:00,
2013-05-28 16:11:00,76.1,67.6,29.75,SSW,194,7.0,10.0,75,0.00,,OVC240,0.85,VWS V14.01,2013-05-28 20:11:00,
2013-05-28 16:17:00,76.5,68.4,29.75,SW,214,4.0,6.0,76,0.00,,OVC240,0.85,VWS V14.01,2013-05-28 20:17:00,
2013-05-28 16:22:00,76.8,67.9,29.75,WSW,244,4.0,16.0,74,0.00,,OVC240,0.85,VWS V14.01,2013-05-28 20:22:00,
2013-05-28 16:27:00,77.0,68.1,29.75,South,180,2.0,12.0,74,0.00,,OVC240,0.85,VWS V14.01,2013-05-28 20:27:00,
2013-05-28 16:32:00,77.1,68.2,29.75,South,186,0.0,5.0,74,0.00,,OVC240,0.85,VWS V14.01,2013-05-28 20:32:00,
2013-05-28 16:37:00,77.2,68.3,29.75,WSW,237,0.0,0.0,74,0.00,,OVC240,0.85,VWS V14.01,2013-05-28 20:37:00,
2013-05-28 16:42:00,77.2,67.5,29.75,WSW,241,7.0,17.0,72,0.00,,OVC240,0.85,VWS V14.01,2013-05-28 20:42:00,
2013-05-28 16:47:00,76.9,67.6,29.75,SW,214,4.0,10.0,73,0.00,,OVC240,0.85,VWS V14.01,2013-05-28 20:47:00,
2013-05-28 16:52:00,76.8,67.9,29.75,SSW,194,0.0,9.0,74,0.00,,OVC240,0.85,VWS V14.01,2013-05-28 20:52:00,
2013-05-28 16:57:00,76.7,67.8,29.74,SSW,199,3.0,8.0,74,0.00,,OVC240,0.85,VWS V14.01,2013-05-28 20:57:00,
2013-05-28 17:02:00,76.4,67.5,29.74,SSW,205,7.0,8.0,74,0.00,,OVC043,0.85,VWS V14.01,2013-05-28 21:02:00,
2013-05-28 17:07:00,76.1,67.2,29.74,SSW,193,0.0,6.0,74,0.00,,OVC043,0.85,VWS V14.01,2013-05-28 21:07:00,
2013-05-28 17:12:00,75.8,67.3,29.74,SW,232,0.0,0.0,75,0.00,,OVC043,0.85,VWS V14.01,2013-05-28 21:12:00,
2013-05-28 17:17:00,75.6,67.5,29.74,SSW,195,0.0,6.0,76,0.00,,OVC043,0.85,VWS V14.01,2013-05-28 21:17:00,
2013-05-28 17:22:00,75.3,67.2,29.74,South,180,0.0,7.0,76,0.00,,OVC043,0.85,VWS V14.01,2013-05-28 21:22:00,
2013-05-28 17:27:00,75.2,67.5,29.74,WSW,238,9.0,9.0,77,0.00,,OVC043,0.85,VWS V14.01,2013-05-28 21:27:00,
2013-05-28 17:32:00,74.9,67.2,29.74,SW,220,8.0,11.0,77,0.00,,OVC043,0.85,VWS V14.01,2013-05-28 21:32:00,
2013-05-28 17:37:00,74.8,67.5,29.74,SW,218,4.0,7.0,78,0.00,,OVC043,0.85,VWS V14.01,2013-05-28 21:37:00,
2013-05-28 17:42:00,74.5,67.2,29.74,South,170,5.0,9.0,78,0.00,,OVC043,0.85,VWS V14.01,2013-05-28 21:42:00,
2013-05-28 17:47:00,74.4,67.5,29.74,WSW,238,6.0,7.0,79,0.00,,OVC043,0.85,VWS V14.01,2013-05-28 21:47:00,
2013-05-28 17:52:00,74.3,67.7,29.74,WSW,245,0.0,5.0,80,0.00,,OVC043,0.85,VWS V14.01,2013-05-28 21:52:00,
2013-05-28 17:57:00,73.9,67.7,29.74,SSW,204,8.0,12.0,81,0.01,,OVC043,0.86,VWS V14.01,2013-05-28 21:57:00,
2013-05-28 18:03:00,73.5,67.7,29.74,SSW,213,0.0,7.0,82,0.01,,-RA,0.86,VWS V14.01,2013-05-28 22:03:00,
2013-05-28 18:08:00,73.1,68.0,29.74,SSW,203,0.0,0.0,84,0.01,,-RA,0.86,VWS V14.01,2013-05-28 22:08:00,
2013-05-28 18:13:00,72.8,67.7,29.73,SW,222,0.0,0.0,84,0.01,,-RA,0.86,VWS V14.01,2013-05-28 22:13:00,
2013-05-28 18:18:00,72.5,67.7,29.73,SSW,194,3.0,4.0,85,0.02,,-RA,0.87,VWS V14.01,2013-05-28 22:18:00,
2013-05-28 18:23:00,72.2,67.8,29.73,SW,219,0.0,0.0,86,0.02,,-RA,0.87,VWS V14.01,2013-05-28 22:23:00,
2013-05-28 18:28:00,72.0,67.6,29.73,SW,216,0.0,0.0,86,0.02,,-RA,0.87,VWS V14.01,2013-05-28 22:28:00,
2013-05-28 18:33:00,71.8,67.7,29.73,SW,215,0.0,0.0,87,0.02,,,0.87,VWS V14.01,2013-05-28 22:33:00,
2013-05-28 18:38:00,71.7,68.0,29.73,SSW,205,0.0,0.0,88,0.02,,,0.87,VWS V14.01,2013-05-28 22:38:00,
2013-05-28 18:43:00,71.5,67.8,29.73,SSW,205,0.0,3.0,88,0.02,,,0.87,VWS V14.01,2013-05-28 22:43:00,
2013-05-28 18:48:00,71.4,68.0,29.73,SSW,205,0.0,0.0,89,0.03,,,0.88,VWS V14.01,2013-05-28 22:48:00,
2013-05-28 18:53:00,71.3,67.9,29.73,SSW,205,0.0,0.0,89,0.03,,,0.88,VWS V14.01,2013-05-28 22:53:00,
2013-05-28 18:58:00,71.2,67.8,29.73,SSW,205,0.0,0.0,89,0.03,,,0.88,VWS V14.01,2013-05-28 22:58:00,
2013-05-28 19:03:00,71.2,67.8,29.73,SSW,195,0.0,4.0,89,0.03,, +RA,0.89,VWS V14.01,2013-05-28 23:03:00,
2013-05-28 19:08:00,71.1,68.0,29.73,SSW,205,0.0,1.0,90,0.03,, +RA,0.89,VWS V14.01,2013-05-28 23:08:00,
2013-05-28 19:13:00,71.0,67.9,29.73,SSW,193,0.0,0.0,90,0.03,, +RA,0.89,VWS V14.01,2013-05-28 23:13:00,
2013-05-28 19:18:00,70.9,67.8,29.73,South,186,4.0,7.0,90,0.02,, +RA,0.89,VWS V14.01,2013-05-28 23:18:00,
2013-05-28 19:23:00,70.8,67.7,29.73,South,189,0.0,0.0,90,0.02,, +RA,0.89,VWS V14.01,2013-05-28 23:23:00,
2013-05-28 19:28:00,70.7,67.6,29.73,SSW,205,0.0,1.0,90,0.02,, +RA,0.89,VWS V14.01,2013-05-28 23:28:00,
2013-05-28 19:33:00,70.7,67.9,29.73,South,188,0.0,0.0,91,0.02,, +RA,0.89,VWS V14.01,2013-05-28 23:33:00,
2013-05-28 19:38:00,70.6,67.8,29.73,South,185,0.0,1.0,91,0.02,, +RA,0.89,VWS V14.01,2013-05-28 23:38:00,
2013-05-28 19:43:00,70.6,67.8,29.73,SSW,201,0.0,0.0,91,0.02,, +RA,0.89,VWS V14.01,2013-05-28 23:43:00,
2013-05-28 19:48:00,70.6,67.8,29.72,South,174,0.0,0.0,91,0.01,, +RA,0.89,VWS V14.01,2013-05-28 23:48:00,
2013-05-28 19:53:00,70.6,67.8,29.72,SSW,207,0.0,2.0,91,0.01,, +RA,0.89,VWS V14.01,2013-05-28 23:53:00,
2013-05-28 19:58:00,70.5,67.8,29.72,South,188,5.0,9.0,91,0.01,, +RA,0.89,VWS V14.01,2013-05-28 23:58:00,
2013-05-28 20:03:00,70.5,67.8,29.73,SSW,199,0.0,5.0,91,0.00,, +RA,0.89,VWS V14.01,2013-05-29 00:03:00,
2013-05-28 20:08:00,70.4,68.0,29.72,SW,216,3.0,6.0,92,0.00,, +RA,0.89,VWS V14.01,2013-05-29 00:08:00,
2013-05-28 20:13:00,70.4,68.0,29.72,SSW,209,2.0,6.0,92,0.00,, +RA,0.89,VWS V14.01,2013-05-29 00:13:00,
2013-05-28 20:18:00,70.4,68.0,29.72,SSW,210,0.0,9.0,92,0.00,, +RA,0.89,VWS V14.01,2013-05-29 00:18:00,
2013-05-28 20:23:00,70.4,68.0,29.72,WSW,247,0.0,0.0,92,0.00,,,0.89,VWS V14.01,2013-05-29 00:23:00,
2013-05-28 20:29:00,70.4,68.0,29.72,SSW,198,6.0,8.0,92,0.00,,,0.89,VWS V14.01,2013-05-29 00:29:00,
2013-05-28 20:34:00,70.3,67.9,29.72,SW,220,5.0,7.0,92,0.00,,,0.89,VWS V14.01,2013-05-29 00:34:00,
2013-05-28 20:39:00,70.3,67.9,29.71,SSW,193,0.0,3.0,92,0.00,,,0.89,VWS V14.01,2013-05-29 00:39:00,
2013-05-28 20:44:00,70.2,67.8,29.71,SSW,209,1.0,8.0,92,0.00,,,0.89,VWS V14.01,2013-05-29 00:44:00,
2013-05-28 20:49:00,70.2,67.8,29.71,SSW,213,0.0,4.0,92,0.00,,,0.89,VWS V14.01,2013-05-29 00:49:00,
2013-05-28 20:54:00,70.1,67.7,29.71,SSW,210,0.0,8.0,92,0.00,,,0.89,VWS V14.01,2013-05-29 00:54:00,
2013-05-28 20:59:00,70.0,67.6,29.70,SW,216,0.0,6.0,92,0.00,,,0.89,VWS V14.01,2013-05-29 00:59:00,
2013-05-28 21:04:00,70.0,67.6,29.71,SSW,198,0.0,7.0,92,0.00,,,0.89,VWS V14.01,2013-05-29 01:04:00,
2013-05-28 21:09:00,70.0,67.6,29.71,South,174,1.0,11.0,92,0.00,,,0.89,VWS V14.01,2013-05-29 01:09:00,
2013-05-28 21:14:00,69.9,67.5,29.71,SSW,207,0.0,7.0,92,0.00,,,0.89,VWS V14.01,2013-05-29 01:14:00,
2013-05-28 21:19:00,69.9,67.5,29.71,South,186,3.0,5.0,92,0.00,,,0.89,VWS V14.01,2013-05-29 01:19:00,
2013-05-28 21:24:00,69.8,67.4,29.71,SSW,207,6.0,7.0,92,0.00,,,0.89,VWS V14.01,2013-05-29 01:24:00,
2013-05-28 21:29:00,69.8,67.4,29.71,SW,218,6.0,7.0,92,0.00,,,0.89,VWS V14.01,2013-05-29 01:29:00,
2013-05-28 21:34:00,69.8,67.4,29.71,SSW,197,1.0,8.0,92,0.00,,,0.89,VWS V14.01,2013-05-29 01:34:00,
2013-05-28 21:39:00,69.8,67.4,29.71,SSW,193,0.0,7.0,92,0.00,,,0.89,VWS V14.01,2013-05-29 01:39:00,
2013-05-28 21:44:00,69.8,67.4,29.71,SSW,213,8.0,8.0,92,0.00,,,0.89,VWS V14.01,2013-05-29 01:44:00,
2013-05-28 21:49:00,69.8,67.4,29.71,SSW,196,0.0,1.0,92,0.00,,,0.89,VWS V14.01,2013-05-29 01:49:00,
2013-05-28 21:54:00,69.8,67.4,29.71,South,178,0.0,0.0,92,0.00,,,0.89,VWS V14.01,2013-05-29 01:54:00,
2013-05-28 21:59:00,69.9,67.5,29.71,South,183,7.0,8.0,92,0.00,,,0.89,VWS V14.01,2013-05-29 01:59:00,
2013-05-28 22:04:00,69.9,67.5,29.72,SSW,205,0.0,0.0,92,0.00,,,0.89,VWS V14.01,2013-05-29 02:04:00,
2013-05-28 22:09:00,69.9,67.5,29.72,SSW,199,0.0,4.0,92,0.00,,,0.89,VWS V14.01,2013-05-29 02:09:00,
2013-05-28 22:14:00,69.9,67.2,29.72,SSW,201,0.0,0.0,91,0.00,,,0.89,VWS V14.01,2013-05-29 02:14:00,
2013-05-28 22:19:00,69.9,67.2,29.72,SW,218,0.0,5.0,91,0.00,,,0.89,VWS V14.01,2013-05-29 02:19:00,
2013-05-28 22:24:00,70.0,67.3,29.71,SSW,205,0.0,0.0,91,0.00,,OVC055,0.89,VWS V14.01,2013-05-29 02:24:00,
2013-05-28 22:29:00,69.9,67.2,29.71,SW,215,3.0,5.0,91,0.00,,OVC055,0.89,VWS V14.01,2013-05-29 02:29:00,
2013-05-28 22:34:00,70.0,67.3,29.71,SSW,199,0.0,5.0,91,0.00,,OVC055,0.89,VWS V14.01,2013-05-29 02:34:00,
2013-05-28 22:39:00,70.0,67.3,29.70,South,179,4.0,7.0,91,0.00,,OVC055,0.89,VWS V14.01,2013-05-29 02:39:00,
2013-05-28 22:45:00,70.0,67.3,29.70,South,180,0.0,0.0,91,0.00,,OVC055,0.89,VWS V14.01,2013-05-29 02:45:00,
2013-05-28 22:50:00,69.9,67.2,29.71,South,183,0.0,5.0,91,0.00,,OVC055,0.89,VWS V14.01,2013-05-29 02:50:00,
2013-05-28 22:55:00,70.0,67.3,29.71,SSW,199,0.0,4.0,91,0.00,,OVC055,0.89,VWS V14.01,2013-05-29 02:55:00,
2013-05-28 23:00:00,70.0,67.3,29.71,SSW,201,0.0,0.0,91,0.00,,OVC055,0.89,VWS V14.01,2013-05-29 03:00:00,
2013-05-28 23:05:00,70.0,67.3,29.72,SSW,213,0.0,0.0,91,0.00,,BKN047,0.89,VWS V14.01,2013-05-29 03:05:00,
2013-05-28 23:10:00,70.1,67.4,29.73,SSW,197,0.0,5.0,91,0.00,,BKN047,0.89,VWS V14.01,2013-05-29 03:10:00,
2013-05-28 23:15:00,70.2,67.4,29.73,SSW,209,0.0,4.0,91,0.00,,BKN047,0.89,VWS V14.01,2013-05-29 03:15:00,
2013-05-28 23:20:00,70.3,67.9,29.73,SSW,205,0.0,0.0,92,0.00,,BKN047,0.89,VWS V14.01,2013-05-29 03:20:00,
2013-05-28 23:25:00,70.4,68.0,29.72,SSW,208,5.0,7.0,92,0.00,,BKN047,0.89,VWS V14.01,2013-05-29 03:25:00,
2013-05-28 23:30:00,70.4,68.0,29.72,South,178,0.0,0.0,92,0.00,,BKN047,0.89,VWS V14.01,2013-05-29 03:30:00,
2013-05-28 23:35:00,70.5,68.1,29.72,SW,214,0.0,0.0,92,0.00,,OVC050,0.89,VWS V14.01,2013-05-29 03:35:00,
2013-05-28 23:40:00,70.6,67.8,29.73,SW,225,0.0,0.0,91,0.00,,OVC050,0.89,VWS V14.01,2013-05-29 03:40:00,
2013-05-28 23:45:00,70.8,68.1,29.73,SSW,199,0.0,3.0,91,0.00,,OVC050,0.89,VWS V14.01,2013-05-29 03:45:00,
2013-05-28 23:50:00,70.8,68.1,29.73,SSW,195,0.0,0.0,91,0.00,,OVC050,0.89,VWS V14.01,2013-05-29 03:50:00,
2013-05-28 23:55:00,70.9,68.2,29.73,SSW,199,0.0,0.0,91,0.00,,OVC050,0.89,VWS V14.01,2013-05-29 03:55:00,